Terminal Aerodrome Forecast
Issued by NWS Mt. Holly, NJ

Home | Current Version | Previous Version | Text Only | Print | Product List | Glossary On
Versions: 1 2 3 4 5 6 7 8 9 10 11 12 13 14 15 16 17 18 19 20 21 22 23 24 25 26 27
365
FTUS41 KPHI 300854 AAA
TAFPHL
TAF AMD
KPHL 300854Z 3009/0112 06009KT P6SM BKN050
      TEMPO 3012/3014 -SHRA
     FM301700 08010KT P6SM BKN035
     FM302100 08010KT P6SM OVC025
     FM010000 09010KT P6SM OVC015
     FM010300 09008KT 5SM BR OVC007=

USA.gov is the U.S. government's official web portal to all federal, state and local government web resources and services.